This is the latest recevied weather packets stored in our database for station/object WX1NWA. If no packets are shown the sender has not sent any weather packets the latest 1 day(s).
| Time | Temp. | Humidity | Pressure | Rain* | Wind** | Luminosity | Snow |
|---|---|---|---|---|---|---|---|
| 1778008022 | 17.22° C | 99% | 1009.2 hPa | 0 mm | 0.45 m/s, 236° | 99 W/m² | - |
| 1778007721 | 17.22° C | 99% | 1009.2 hPa | 0 mm | 0 m/s | 87 W/m² | - |
| 1778007418 | 16.67° C | 99% | 1009.3 hPa | 0 mm | 0 m/s | 79 W/m² | - |
| 1778007115 | 16.67° C | 99% | 1009 hPa | 0 mm | 0 m/s | 82 W/m² | - |
| 1778006811 | 16.67° C | 99% | 1009.1 hPa | 0 mm | 0.89 m/s, 270° | 79 W/m² | - |
| 1778006508 | 16.67° C | 99% | 1009.3 hPa | 0 mm | 1.34 m/s, 54° | 74 W/m² | - |
| 1778006205 | 16.67° C | 99% | 1009.2 hPa | 0 mm | 0 m/s | 64 W/m² | - |
| 1778005903 | 16.67° C | 99% | 1009.1 hPa | 0 mm | 0 m/s | 69 W/m² | - |
| 1778005598 | 16.67° C | 99% | 1009.1 hPa | 0 mm | 0.89 m/s, 170° | 59 W/m² | - |
| 1778005296 | 16.67° C | 99% | 1008.9 hPa | 0 mm | 0 m/s | 72 W/m² | - |
| 1778004992 | 16.67° C | 99% | 1009.1 hPa | 0 mm | 0 m/s | 95 W/m² | - |
| 1778004689 | 16.67° C | 99% | 1008.9 hPa | 0 mm | 0.45 m/s, 203° | 85 W/m² | - |
| 1778004386 | 16.67° C | 99% | 1009.2 hPa | 0 mm | 0.89 m/s, 107° | 99 W/m² | - |
| 1778004083 | 16.67° C | 99% | 1009.2 hPa | 0 mm | 0.89 m/s, 217° | 140 W/m² | - |
| 1778003779 | 16.67° C | 99% | 1009.2 hPa | 0 mm | 0.45 m/s, 135° | 83 W/m² | - |
| 1778003476 | 16.11° C | 99% | 1009.2 hPa | 0 mm | 0.45 m/s, 186° | 86 W/m² | - |
| 1778003172 | 16.67° C | 99% | 1009.1 hPa | 0 mm | 0.89 m/s, 219° | 82 W/m² | - |
| 1778002868 | 16.67° C | 99% | 1009.2 hPa | 0 mm | 0 m/s | 88 W/m² | - |
| 1778002565 | 16.11° C | 99% | 1009.5 hPa | 0 mm | 2.68 m/s, 295° | 125 W/m² | - |
| 1778002262 | 16.11° C | 99% | 1009.2 hPa | 0 mm | 0.45 m/s, 274° | 69 W/m² | - |
| 1778001960 | 16.11° C | 99% | 1009.2 hPa | 0 mm | 0.89 m/s, 216° | 92 W/m² | - |
| 1778001656 | 16.11° C | 99% | 1009.2 hPa | 0 mm | 0.89 m/s, 197° | 90 W/m² | - |
| 1778001351 | 16.11° C | 99% | 1009.5 hPa | 0 mm | 1.79 m/s, 265° | 92 W/m² | - |
| 1778001048 | 16.11° C | 99% | 1009.5 hPa | 0 mm | 0.89 m/s, 232° | 99 W/m² | - |
| 1778000745 | 16.11° C | 99% | 1009.2 hPa | 0 mm | 0.45 m/s, 271° | 79 W/m² | - |
* Rain latest hour (hover to see other rain measurements)
** Current wind speed in m/s (hover to see current wind gust speed)